Melissa — E5U2571 — position and weather

sailwx.info

Track history (hours):
 
Tides and Currents Weather Stations Pressure Air Temp Water Temp Dewpoint Dewpoint Depression Visibility Wind Speed Wind Dir Waves Ship Positions

Melissa

Last reported at 2018-Jun-22 20:51 UTC. Time now 2018-Jun-25 02:24 UTC.
Position N 36°37' E 014°49'.

Length 83 m; draft 4.4 m.

Type: Cargo ship. MMSI: 518624000.

Date/timePositionNaut miles runAvg speedWind from/ knotsBaromVisibWave heightAir tempDewpointWater temp
2018-Jun-22 20:51N 36°37' E 014°49'3 7.4
2018-Jun-22 20:27N 36°38' E 014°46'8 7.6
2018-Jun-22 19:26N 36°41' E 014°37'5 7.5
2018-Jun-22 18:48N 36°42' E 014°31'2 7.4
2018-Jun-22 18:30N 36°43' E 014°28'3 7.0
2018-Jun-22 18:00N 36°45' E 014°24'3 6.8
2018-Jun-22 17:30N 36°46' E 014°21'4 7.4
2018-Jun-22 17:00N 36°47' E 014°16'4 8.1
2018-Jun-22 16:30N 36°49' E 014°11'4 8.1
2018-Jun-22 15:59N 36°50' E 014°07'4 8.1
2018-Jun-22 15:30N 36°52' E 014°02'4 8.1
2018-Jun-22 14:59N 36°54' E 013°57'4 8.1
2018-Jun-22 14:30N 36°55' E 013°53'4 8.2
2018-Jun-22 14:00N 36°57' E 013°48'4 8.0
2018-Jun-22 13:29N 36°59' E 013°44'4 7.7
2018-Jun-22 13:00N 37°00' E 013°39'4 7.3
2018-Jun-22 12:30N 37°02' E 013°35'  
2018-Jun-19 02:50N 40°47' E 002°08'4 7.0
2018-Jun-19 02:15N 40°48' E 002°03'2 6.9
2018-Jun-19 02:00N 40°49' E 002°01'3 6.9
2018-Jun-19 01:30N 40°50' E 001°56'4 7.0
2018-Jun-19 01:00N 40°51' E 001°52'4 7.2
2018-Jun-19 00:29N 40°53' E 001°47'4 7.5
2018-Jun-19 00:01N 40°54' E 001°43'4 7.6
2018-Jun-18 23:30N 40°56' E 001°39'6 7.7
2018-Jun-18 22:44N 40°58' E 001°31'4 7.2
2018-Jun-18 22:15N 40°59' E 001°27'2 6.7
2018-Jun-18 21:57N 41°00' E 001°24'3 6.5
2018-Jun-18 21:30N 41°01' E 001°21'  
2018-Jun-14 16:52N 41°07' E 001°31'3 7.5
2018-Jun-14 16:29N 41°08' E 001°34'4 7.7
2018-Jun-14 16:00N 41°09' E 001°39'4 7.5
2018-Jun-14 15:30N 41°11' E 001°43'2 3.2
2018-Jun-14 14:56N 41°13' E 001°44'0 0.0
2018-Jun-14 14:26N 41°13' E 001°44'0 0.0
2018-Jun-14 13:56N 41°13' E 001°44'0 0.0
2018-Jun-14 13:26N 41°13' E 001°44'0 0.0
2018-Jun-14 12:56N 41°13' E 001°44'0 0.0
2018-Jun-14 12:26N 41°13' E 001°44'0 0.0
2018-Jun-14 11:56N 41°13' E 001°44'0 0.0
2018-Jun-14 11:26N 41°13' E 001°44'0 0.0
2018-Jun-14 10:59N 41°13' E 001°44'0 0.0
2018-Jun-14 10:29N 41°13' E 001°44'0 0.0
2018-Jun-14 09:59N 41°13' E 001°44'0 0.0
2018-Jun-14 09:29N 41°13' E 001°44'0 0.0
2018-Jun-14 08:59N 41°13' E 001°44'0 0.0
2018-Jun-14 08:14N 41°13' E 001°44'0 0.0
2018-Jun-14 07:59N 41°13' E 001°44'0 0.0
2018-Jun-14 07:29N 41°13' E 001°44'0 0.0
2018-Jun-14 06:59N 41°13' E 001°44'0 0.0
2018-Jun-14 06:29N 41°13' E 001°44'0 0.0
2018-Jun-14 05:59N 41°13' E 001°44'0 0.0
2018-Jun-14 05:29N 41°13' E 001°44'0 0.0
2018-Jun-14 04:59N 41°13' E 001°44'0 0.0
2018-Jun-14 04:29N 41°13' E 001°44'0 0.0
2018-Jun-14 03:59N 41°13' E 001°44'0 0.0
2018-Jun-14 03:29N 41°13' E 001°44'0 0.0
2018-Jun-14 02:59N 41°13' E 001°44'0 0.0
2018-Jun-14 02:29N 41°13' E 001°44'0 0.0
2018-Jun-14 01:59N 41°13' E 001°44'0 0.0
2018-Jun-14 01:29N 41°13' E 001°44'0 0.0
2018-Jun-14 00:59N 41°13' E 001°44'0 0.0
2018-Jun-14 00:28N 41°13' E 001°44'0 0.0
2018-Jun-13 23:58N 41°13' E 001°44'0 0.0
2018-Jun-13 23:28N 41°13' E 001°44'0 0.0
2018-Jun-13 22:58N 41°13' E 001°44'0 0.0
2018-Jun-13 22:28N 41°13' E 001°44'0 0.0
2018-Jun-13 21:58N 41°13' E 001°44'0 0.0
2018-Jun-13 21:19N 41°13' E 001°44'0 0.0
2018-Jun-13 20:49N 41°13' E 001°44'0 0.0
2018-Jun-13 20:19N 41°13' E 001°44'0 0.0
2018-Jun-13 19:49N 41°13' E 001°44'0 0.0
2018-Jun-13 19:19N 41°13' E 001°44'0 0.0
2018-Jun-13 18:52N 41°13' E 001°44'0 0.0
2018-Jun-13 18:22N 41°13' E 001°44'0 0.0
2018-Jun-13 17:52N 41°13' E 001°44'0 0.0
2018-Jun-13 17:22N 41°13' E 001°44'0 0.0
2018-Jun-13 16:52N 41°13' E 001°44'0 0.0
2018-Jun-13 16:22N 41°13' E 001°44'0 0.0
2018-Jun-13 15:52N 41°13' E 001°44'0 0.0
2018-Jun-13 15:07N 41°13' E 001°44'0 0.0
2018-Jun-13 14:52N 41°13' E 001°44'0 0.0
2018-Jun-13 14:22N 41°13' E 001°44'0 0.0
2018-Jun-13 13:49N 41°13' E 001°44'0 0.0
2018-Jun-13 13:25N 41°13' E 001°44'0 0.0
2018-Jun-13 12:55N 41°13' E 001°44'0 0.0
2018-Jun-13 12:25N 41°13' E 001°44'0 0.0
2018-Jun-13 11:55N 41°13' E 001°44'0 0.0
2018-Jun-13 11:25N 41°13' E 001°44'0 0.0
2018-Jun-13 11:00N 41°13' E 001°44'0 0.0
2018-Jun-13 10:30N 41°13' E 001°44'1 1.2
2018-Jun-13 10:00N 41°12' E 001°44'0 0.8
2018-Jun-13 09:29N 41°12' E 001°44'1 1.4
2018-Jun-13 09:00N 41°11' E 001°44'1 2.8
2018-Jun-13 08:30N 41°10' E 001°45'3 5.9
2018-Jun-13 08:00N 41°09' E 001°48'3 6.4
2018-Jun-13 07:30N 41°08' E 001°52'3 6.7
2018-Jun-13 07:00N 41°06' E 001°56'4 7.0
2018-Jun-13 06:30N 41°05' E 002°00'  
Track history (hours):
 
Tides and Currents Weather Stations Pressure Air Temp Water Temp Dewpoint Dewpoint Depression Visibility Wind Speed Wind Dir Waves Ship Positions

Melissa

Last reported at 2018-Jun-22 20:51 UTC. Time now 2018-Jun-25 02:24 UTC.
Position N 36°37' E 014°49'.

Length 83 m; draft 4.4 m.

Type: Cargo ship. MMSI: 518624000.

Date/timePositionNaut miles runAvg speedWind from/ knotsBaromVisibWave heightAir tempDewpointWater temp
2018-Jun-22 20:51N 36°37' E 014°49'3 7.4
2018-Jun-22 20:27N 36°38' E 014°46'8 7.6
2018-Jun-22 19:26N 36°41' E 014°37'5 7.5
2018-Jun-22 18:48N 36°42' E 014°31'2 7.4
2018-Jun-22 18:30N 36°43' E 014°28'3 7.0
2018-Jun-22 18:00N 36°45' E 014°24'3 6.8
2018-Jun-22 17:30N 36°46' E 014°21'4 7.4
2018-Jun-22 17:00N 36°47' E 014°16'4 8.1
2018-Jun-22 16:30N 36°49' E 014°11'4 8.1
2018-Jun-22 15:59N 36°50' E 014°07'4 8.1
2018-Jun-22 15:30N 36°52' E 014°02'4 8.1
2018-Jun-22 14:59N 36°54' E 013°57'4 8.1
2018-Jun-22 14:30N 36°55' E 013°53'4 8.2
2018-Jun-22 14:00N 36°57' E 013°48'4 8.0
2018-Jun-22 13:29N 36°59' E 013°44'4 7.7
2018-Jun-22 13:00N 37°00' E 013°39'4 7.3
2018-Jun-22 12:30N 37°02' E 013°35'  
2018-Jun-19 02:50N 40°47' E 002°08'4 7.0
2018-Jun-19 02:15N 40°48' E 002°03'2 6.9
2018-Jun-19 02:00N 40°49' E 002°01'3 6.9
2018-Jun-19 01:30N 40°50' E 001°56'4 7.0
2018-Jun-19 01:00N 40°51' E 001°52'4 7.2
2018-Jun-19 00:29N 40°53' E 001°47'4 7.5
2018-Jun-19 00:01N 40°54' E 001°43'4 7.6
2018-Jun-18 23:30N 40°56' E 001°39'6 7.7
2018-Jun-18 22:44N 40°58' E 001°31'4 7.2
2018-Jun-18 22:15N 40°59' E 001°27'2 6.7
2018-Jun-18 21:57N 41°00' E 001°24'3 6.5
2018-Jun-18 21:30N 41°01' E 001°21'  
2018-Jun-14 16:52N 41°07' E 001°31'3 7.5
2018-Jun-14 16:29N 41°08' E 001°34'4 7.7
2018-Jun-14 16:00N 41°09' E 001°39'4 7.5
2018-Jun-14 15:30N 41°11' E 001°43'2 3.2
2018-Jun-14 14:56N 41°13' E 001°44'0 0.0
2018-Jun-14 14:26N 41°13' E 001°44'0 0.0
2018-Jun-14 13:56N 41°13' E 001°44'0 0.0
2018-Jun-14 13:26N 41°13' E 001°44'0 0.0
2018-Jun-14 12:56N 41°13' E 001°44'0 0.0
2018-Jun-14 12:26N 41°13' E 001°44'0 0.0
2018-Jun-14 11:56N 41°13' E 001°44'0 0.0
2018-Jun-14 11:26N 41°13' E 001°44'0 0.0
2018-Jun-14 10:59N 41°13' E 001°44'0 0.0
2018-Jun-14 10:29N 41°13' E 001°44'0 0.0
2018-Jun-14 09:59N 41°13' E 001°44'0 0.0
2018-Jun-14 09:29N 41°13' E 001°44'0 0.0
2018-Jun-14 08:59N 41°13' E 001°44'0 0.0
2018-Jun-14 08:14N 41°13' E 001°44'0 0.0
2018-Jun-14 07:59N 41°13' E 001°44'0 0.0
2018-Jun-14 07:29N 41°13' E 001°44'0 0.0
2018-Jun-14 06:59N 41°13' E 001°44'0 0.0
2018-Jun-14 06:29N 41°13' E 001°44'0 0.0
2018-Jun-14 05:59N 41°13' E 001°44'0 0.0
2018-Jun-14 05:29N 41°13' E 001°44'0 0.0
2018-Jun-14 04:59N 41°13' E 001°44'0 0.0
2018-Jun-14 04:29N 41°13' E 001°44'0 0.0
2018-Jun-14 03:59N 41°13' E 001°44'0 0.0
2018-Jun-14 03:29N 41°13' E 001°44'0 0.0
2018-Jun-14 02:59N 41°13' E 001°44'0 0.0
2018-Jun-14 02:29N 41°13' E 001°44'0 0.0
2018-Jun-14 01:59N 41°13' E 001°44'0 0.0
2018-Jun-14 01:29N 41°13' E 001°44'0 0.0
2018-Jun-14 00:59N 41°13' E 001°44'0 0.0
2018-Jun-14 00:28N 41°13' E 001°44'0 0.0
2018-Jun-13 23:58N 41°13' E 001°44'0 0.0
2018-Jun-13 23:28N 41°13' E 001°44'0 0.0
2018-Jun-13 22:58N 41°13' E 001°44'0 0.0
2018-Jun-13 22:28N 41°13' E 001°44'0 0.0
2018-Jun-13 21:58N 41°13' E 001°44'0 0.0
2018-Jun-13 21:19N 41°13' E 001°44'0 0.0
2018-Jun-13 20:49N 41°13' E 001°44'0 0.0
2018-Jun-13 20:19N 41°13' E 001°44'0 0.0
2018-Jun-13 19:49N 41°13' E 001°44'0 0.0
2018-Jun-13 19:19N 41°13' E 001°44'0 0.0
2018-Jun-13 18:52N 41°13' E 001°44'0 0.0
2018-Jun-13 18:22N 41°13' E 001°44'0 0.0
2018-Jun-13 17:52N 41°13' E 001°44'0 0.0
2018-Jun-13 17:22N 41°13' E 001°44'0 0.0
2018-Jun-13 16:52N 41°13' E 001°44'0 0.0
2018-Jun-13 16:22N 41°13' E 001°44'0 0.0
2018-Jun-13 15:52N 41°13' E 001°44'0 0.0
2018-Jun-13 15:07N 41°13' E 001°44'0 0.0
2018-Jun-13 14:52N 41°13' E 001°44'0 0.0
2018-Jun-13 14:22N 41°13' E 001°44'0 0.0
2018-Jun-13 13:49N 41°13' E 001°44'0 0.0
2018-Jun-13 13:25N 41°13' E 001°44'0 0.0
2018-Jun-13 12:55N 41°13' E 001°44'0 0.0
2018-Jun-13 12:25N 41°13' E 001°44'0 0.0
2018-Jun-13 11:55N 41°13' E 001°44'0 0.0
2018-Jun-13 11:25N 41°13' E 001°44'0 0.0
2018-Jun-13 11:00N 41°13' E 001°44'0 0.0
2018-Jun-13 10:30N 41°13' E 001°44'1 1.2
2018-Jun-13 10:00N 41°12' E 001°44'0 0.8
2018-Jun-13 09:29N 41°12' E 001°44'1 1.4
2018-Jun-13 09:00N 41°11' E 001°44'1 2.8
2018-Jun-13 08:30N 41°10' E 001°45'3 5.9
2018-Jun-13 08:00N 41°09' E 001°48'3 6.4
2018-Jun-13 07:30N 41°08' E 001°52'3 6.7
2018-Jun-13 07:00N 41°06' E 001°56'4 7.0
2018-Jun-13 06:30N 41°05' E 002°00'  

Dump ship's entire track history